MacAlister, Canada
Current Conditions -  °F | °C
As of 3:00 AM on Sunday 23 Nov 2014 (Local Time) from CYWL Reporting Station
Broken Clouds Broken Clouds  
Wind Chill: -7°   Ceiling: 5200
Heat Index: -2°   Visibility: 15mi
Dew Point: -5°   Wind: 10mph
Humidity: 80%   Direction: 120°ESE
Pressure: 29.76"   Gusts: NA
Location:  52.45°N, 122.4°W
Report Text: CYWL 231100Z 12009KT 15SM BKN052 M02/M05 A2976 RMK SC5 SLP111
Loading
Personal Weather Stations






























Interactive Weather Map New forecast layout! Learn more

10-Day Weather Forecast

Advertisements
Track Severe Weather on mobile